createdAt,value
2018-11-27T00:06:46.477Z,96499.77
2018-11-27T00:17:04.640Z,96505.91
2018-11-27T00:27:22.619Z,96507.91
2018-11-27T00:37:41.274Z,96515.58
2018-11-27T00:48:00.064Z,96525.66
2018-11-27T00:58:22.219Z,96531.31
2018-11-27T01:08:43.683Z,96547.14
2018-11-27T01:19:04.183Z,96550.34
2018-11-27T01:29:24.448Z,96558.45
2018-11-27T01:39:43.318Z,96558.94
2018-11-27T01:50:01.601Z,96571.72
2018-11-27T02:00:30.981Z,96564.29
2018-11-27T02:10:50.143Z,96563.75
2018-11-27T02:21:08.223Z,96575.84
2018-11-27T02:31:26.354Z,96579.79
2018-11-27T02:41:44.621Z,96588.75
2018-11-27T02:52:03.091Z,96584.23
2018-11-27T03:02:21.840Z,96602.30
2018-11-27T03:12:41.433Z,96602.77
2018-11-27T03:23:00.340Z,96612.66
2018-11-27T03:33:18.599Z,96623.44
2018-11-27T03:43:38.089Z,96628.22
2018-11-27T03:53:56.035Z,96634.16
2018-11-27T04:04:16.078Z,96650.70
2018-11-27T04:14:34.334Z,96656.23
2018-11-27T04:24:52.407Z,96661.86
2018-11-27T04:35:13.397Z,96675.97
2018-11-27T04:45:31.448Z,96679.04
2018-11-27T04:55:53.958Z,96679.86
2018-11-27T05:06:12.242Z,96692.41
2018-11-27T05:16:31.174Z,96703.09
2018-11-27T05:26:53.482Z,96709.66
2018-11-27T05:37:13.676Z,96722.69
2018-11-27T05:47:32.756Z,96728.70
2018-11-27T05:57:52.646Z,96745.13
2018-11-27T06:08:11.584Z,96764.82
2018-11-27T06:18:30.186Z,96760.12
2018-11-27T06:28:50.627Z,96774.45
2018-11-27T06:39:22.632Z,96791.34
2018-11-27T06:49:43.993Z,96806.38
2018-11-27T07:00:02.606Z,96824.47
2018-11-27T07:10:31.359Z,96843.82
2018-11-27T07:20:50.332Z,96851.94
2018-11-27T07:31:10.228Z,96860.64
2018-11-27T07:41:28.435Z,96872.02
2018-11-27T07:51:47.613Z,96890.33
2018-11-27T08:02:05.928Z,96895.19
2018-11-27T08:12:24.270Z,96897.64
2018-11-27T08:22:43.249Z,96930.77
2018-11-27T08:33:02.289Z,96939.23
2018-11-27T08:43:20.304Z,96943.72
2018-11-27T08:53:38.469Z,96953.13
2018-11-27T09:03:57.184Z,96970.52
2018-11-27T09:14:15.987Z,96982.16
2018-11-27T09:24:35.157Z,96994.62
2018-11-27T09:34:54.069Z,97010.57
2018-11-27T09:45:30.418Z,97020.10
2018-11-27T09:55:48.599Z,97020.34
2018-11-27T21:10:55.458Z,97634.80
2018-11-27T21:21:21.283Z,97743.41
2018-11-27T21:31:39.616Z,97752.02
2018-11-27T21:41:57.770Z,97755.48
2018-11-27T21:52:15.699Z,97758.01
2018-11-27T22:02:33.676Z,97765.94
2018-11-27T22:12:57.708Z,97772.12
2018-11-27T22:23:18.617Z,97777.00
2018-11-27T22:33:38.422Z,97785.69
2018-11-27T22:43:58.504Z,97803.77
2018-11-27T22:54:16.419Z,97827.17
2018-11-27T23:04:36.188Z,97844.44
2018-11-27T23:14:54.319Z,97855.52
2018-11-27T23:25:15.050Z,97854.41
2018-11-27T23:35:32.961Z,97855.59
2018-11-27T23:45:50.847Z,97858.19
2018-11-27T23:56:08.783Z,97851.09
